createdAt,value
2018-04-25T00:00:59.822Z,6.75
2018-04-25T00:03:27.245Z,6.32
2018-04-25T00:05:54.671Z,6.85
2018-04-25T00:08:22.103Z,6.50
2018-04-25T00:10:49.556Z,6.78
2018-04-25T00:13:16.984Z,6.80
2018-04-25T00:15:44.440Z,6.70
2018-04-25T00:18:11.871Z,6.50
2018-04-25T00:20:39.315Z,6.95
2018-04-25T00:23:08.483Z,6.85
2018-04-25T00:25:35.932Z,7.30
2018-04-25T00:28:03.360Z,7.18
2018-04-25T00:39:10.134Z,7.25
2018-04-25T00:41:37.574Z,7.28
2018-04-25T00:44:05.790Z,6.35
2018-04-25T00:46:33.252Z,7.25
2018-04-25T00:49:00.714Z,6.78
2018-04-25T00:51:28.184Z,7.07
2018-04-25T00:53:55.619Z,7.37
2018-04-25T00:56:23.064Z,6.55
2018-04-25T00:58:50.515Z,6.85
2018-04-25T01:01:17.952Z,7.10
2018-04-25T01:03:46.157Z,6.37
2018-04-25T01:06:13.613Z,7.00
2018-04-25T01:08:41.079Z,6.78
2018-04-25T01:11:08.525Z,7.00
2018-04-25T01:13:41.430Z,6.78
2018-04-25T01:16:08.880Z,6.72
2018-04-25T01:18:36.331Z,6.82
2018-04-25T01:21:04.537Z,6.97
2018-04-25T01:23:31.972Z,6.53
2018-04-25T01:26:06.444Z,6.50
2018-04-25T01:28:44.712Z,6.72
2018-04-25T01:31:22.703Z,6.53
2018-04-25T01:33:58.502Z,6.80
2018-04-25T01:36:41.619Z,6.97
2018-04-25T01:39:09.660Z,6.70
2018-04-25T01:41:37.107Z,7.07
2018-04-25T01:47:05.404Z,7.28
2018-04-25T01:49:39.230Z,6.80
2018-04-25T01:52:19.124Z,6.50
2018-04-25T01:54:58.449Z,6.40
2018-04-25T01:57:37.712Z,6.80
2018-04-25T02:00:17.708Z,6.97
2018-04-25T02:02:44.702Z,7.45
2018-04-25T02:05:12.125Z,7.20
2018-04-25T02:07:39.578Z,7.00
2018-04-25T02:10:07.035Z,6.62
2018-04-25T02:12:34.480Z,7.47
2018-04-25T02:15:01.921Z,7.68
2018-04-25T02:17:30.153Z,6.90
2018-04-25T02:19:57.586Z,7.62
2018-04-25T02:22:25.040Z,7.25
2018-04-25T02:24:52.478Z,7.50
2018-04-25T02:27:19.926Z,7.72
2018-04-25T02:29:47.358Z,7.97
2018-04-25T02:32:14.852Z,7.43
2018-04-25T02:34:42.297Z,8.35
2018-04-25T02:37:09.741Z,8.43
2018-04-25T02:39:37.189Z,7.87
2018-04-25T02:42:04.627Z,8.13
2018-04-25T02:44:32.837Z,7.75
2018-04-25T02:47:00.297Z,7.57
2018-04-25T02:49:27.739Z,7.28
2018-04-25T02:54:29.949Z,7.68
2018-04-25T02:56:57.395Z,7.80
2018-04-25T02:59:24.848Z,8.45
2018-04-25T03:01:53.052Z,7.95
2018-04-25T03:04:20.504Z,8.18
2018-04-25T03:06:47.936Z,8.10
2018-04-25T03:09:16.165Z,8.30
2018-04-25T03:11:43.630Z,8.45
2018-04-25T03:14:11.081Z,7.82
2018-04-25T03:16:38.525Z,8.60
2018-04-25T03:19:05.990Z,9.10
2018-04-25T03:21:33.424Z,8.00
2018-04-25T03:24:00.877Z,8.20
2018-04-25T03:26:28.304Z,8.52
2018-04-25T03:28:55.753Z,7.70
2018-04-25T03:31:23.205Z,8.00
2018-04-25T03:33:50.662Z,8.27
2018-04-25T03:36:18.113Z,8.07
2018-04-25T03:38:46.344Z,7.80
2018-04-25T03:41:13.777Z,8.07
2018-04-25T03:43:41.216Z,8.18
2018-04-25T03:46:09.418Z,8.25
2018-04-25T03:48:36.896Z,7.53
2018-04-25T03:51:04.344Z,7.20
2018-04-25T03:53:31.781Z,7.40
2018-04-25T03:55:59.984Z,8.00
2018-04-25T03:58:27.423Z,7.55
2018-04-25T04:00:55.639Z,8.32
2018-04-25T04:03:23.067Z,8.25
2018-04-25T04:05:51.312Z,7.80
2018-04-25T04:08:18.787Z,8.18
2018-04-25T04:10:46.256Z,8.23
2018-04-25T04:13:13.688Z,8.32
2018-04-25T04:15:41.144Z,8.65
2018-04-25T04:18:08.598Z,8.02
2018-04-25T04:20:36.040Z,7.87
2018-04-25T04:23:03.489Z,8.60
2018-04-25T04:25:30.933Z,8.60
2018-04-25T04:27:59.139Z,8.50
2018-04-25T04:30:26.593Z,8.68
2018-04-25T04:32:54.037Z,8.25
2018-04-25T04:35:22.256Z,8.60
2018-04-25T04:37:50.486Z,7.62
2018-04-25T04:40:17.948Z,8.50
2018-04-25T04:42:45.380Z,8.23
2018-04-25T04:45:12.839Z,9.00
2018-04-25T04:47:40.312Z,8.32
2018-04-25T04:50:07.769Z,8.95
2018-04-25T04:52:35.211Z,8.75
2018-04-25T04:55:02.685Z,7.82
2018-04-25T04:57:30.116Z,8.32
2018-04-25T04:59:57.562Z,8.70
2018-04-25T05:02:25.773Z,9.20
2018-04-25T05:04:53.228Z,9.10
2018-04-25T05:07:20.703Z,8.63
2018-04-25T05:09:48.148Z,8.80
2018-04-25T05:12:15.608Z,8.07
2018-04-25T05:14:43.061Z,9.02
2018-04-25T05:17:11.277Z,8.38
2018-04-25T05:19:39.481Z,8.27
2018-04-25T05:22:06.932Z,8.10
2018-04-25T05:24:34.459Z,8.63
2018-04-25T05:27:01.827Z,7.97
2018-04-25T05:29:29.270Z,8.63
2018-04-25T05:31:56.722Z,8.48
2018-04-25T05:34:24.921Z,8.77
2018-04-25T05:36:52.393Z,8.50
2018-04-25T05:39:19.854Z,7.55
2018-04-25T05:41:47.298Z,7.53
2018-04-25T05:44:14.740Z,7.75
2018-04-25T05:46:42.957Z,7.50
2018-04-25T05:49:10.393Z,7.68
2018-04-25T05:51:38.608Z,7.65
2018-04-25T05:54:06.064Z,7.87
2018-04-25T05:56:33.524Z,7.53
2018-04-25T05:59:00.954Z,7.55
2018-04-25T06:01:29.175Z,7.30
2018-04-25T06:03:56.610Z,6.90
2018-04-25T06:06:24.075Z,7.22
2018-04-25T06:08:51.523Z,6.85
2018-04-25T06:11:19.751Z,6.72
2018-04-25T06:13:47.193Z,7.05
2018-04-25T06:16:14.655Z,6.82
2018-04-25T06:18:42.109Z,7.10
2018-04-25T06:21:09.553Z,7.03
2018-04-25T06:23:37.763Z,6.82
2018-04-25T06:26:05.222Z,6.87
2018-04-25T06:28:32.665Z,7.30
2018-04-25T06:31:00.113Z,6.80
2018-04-25T06:33:28.331Z,7.32
2018-04-25T06:35:55.776Z,7.87
2018-04-25T06:38:23.230Z,8.13
2018-04-25T06:40:51.437Z,8.02
2018-04-25T06:43:18.896Z,7.75
2018-04-25T06:45:46.356Z,7.68
2018-04-25T06:48:13.811Z,7.75
2018-04-25T06:50:41.258Z,7.45
2018-04-25T06:53:08.696Z,7.60
2018-04-25T06:55:36.933Z,7.45
2018-04-25T06:58:04.380Z,7.47
2018-04-25T07:00:31.835Z,7.72
2018-04-25T07:02:59.280Z,7.37
2018-04-25T07:05:27.488Z,8.00
2018-04-25T07:07:55.033Z,8.32
2018-04-25T07:10:22.421Z,8.77
2018-04-25T07:12:49.876Z,8.50
2018-04-25T07:15:17.313Z,7.55
2018-04-25T07:17:44.766Z,7.40
2018-04-25T07:20:12.980Z,7.55
2018-04-25T07:22:40.484Z,7.55
2018-04-25T07:25:07.950Z,7.82
2018-04-25T07:27:35.406Z,7.55
2018-04-25T07:30:02.862Z,8.32
2018-04-25T07:32:30.301Z,7.53
2018-04-25T07:34:57.736Z,8.25
2018-04-25T07:37:25.178Z,7.95
2018-04-25T07:39:53.384Z,8.02
2018-04-25T07:42:20.852Z,7.43
2018-04-25T07:44:48.312Z,6.70
2018-04-25T07:47:15.752Z,6.87
2018-04-25T07:49:43.965Z,6.60
2018-04-25T07:52:11.433Z,6.45
2018-04-25T07:54:38.890Z,5.75
2018-04-25T07:57:06.340Z,6.03
2018-04-25T07:59:33.807Z,6.12
2018-04-25T08:02:01.251Z,5.37
2018-04-25T08:04:28.709Z,5.78
2018-04-25T08:06:56.145Z,5.90
2018-04-25T08:09:23.601Z,5.90
2018-04-25T08:11:51.040Z,5.60
2018-04-25T08:14:30.253Z,6.80
2018-04-25T08:17:09.655Z,6.37
2018-04-25T08:19:52.595Z,5.87
2018-04-25T08:22:20.809Z,5.62
2018-04-25T08:24:48.279Z,5.85
2018-04-25T08:27:15.722Z,5.97
2018-04-25T08:29:43.192Z,5.95
2018-04-25T08:32:10.642Z,5.85
2018-04-25T08:34:38.098Z,6.15
2018-04-25T08:37:05.547Z,5.78
2018-04-25T08:39:33.007Z,6.18
2018-04-25T08:42:00.453Z,5.75
2018-04-25T08:44:28.675Z,5.37
2018-04-25T08:46:56.117Z,5.55
2018-04-25T08:49:23.570Z,5.50
2018-04-25T08:51:51.004Z,5.53
2018-04-25T08:54:19.233Z,6.35
2018-04-25T08:56:46.674Z,5.75
2018-04-25T08:59:14.170Z,5.95
2018-04-25T09:01:41.581Z,5.97
2018-04-25T09:04:09.792Z,5.72
2018-04-25T09:06:37.996Z,5.55
2018-04-25T09:09:05.448Z,5.72
2018-04-25T09:11:32.916Z,5.03
2018-04-25T09:14:00.367Z,5.55
2018-04-25T09:16:27.815Z,5.53
2018-04-25T09:18:55.272Z,5.10
2018-04-25T09:21:22.723Z,4.87
2018-04-25T09:23:50.182Z,4.40
2018-04-25T09:26:17.640Z,4.30
2018-04-25T09:28:45.855Z,4.95
2018-04-25T09:31:13.307Z,4.75
2018-04-25T09:33:40.751Z,4.30
2018-04-25T09:36:08.211Z,4.45
2018-04-25T09:38:35.656Z,4.45
2018-04-25T09:41:03.869Z,3.55
2018-04-25T09:43:31.319Z,3.62
2018-04-25T09:45:58.783Z,3.80
2018-04-25T09:48:26.253Z,4.07
2018-04-25T09:50:54.434Z,3.87
2018-04-25T09:53:21.881Z,4.20
2018-04-25T09:55:49.321Z,4.03
2018-04-25T09:58:17.562Z,4.45
2018-04-25T10:00:50.653Z,3.50
2018-04-25T10:03:23.035Z,3.95
2018-04-25T10:05:50.493Z,3.67
2018-04-25T10:08:17.937Z,3.40
2018-04-25T10:10:45.397Z,3.53
2018-04-25T10:13:12.835Z,4.15
2018-04-25T10:15:40.305Z,3.42
2018-04-25T10:18:07.739Z,3.60
2018-04-25T10:20:35.955Z,3.30
2018-04-25T10:23:03.408Z,3.17
2018-04-25T10:25:30.916Z,3.67
2018-04-25T10:27:59.085Z,3.60
2018-04-25T10:30:26.513Z,3.62
2018-04-25T10:32:53.976Z,3.42
2018-04-25T10:35:21.471Z,3.40
2018-04-25T10:37:48.920Z,3.37
2018-04-25T10:40:16.350Z,3.55
2018-04-25T10:42:44.563Z,3.87
2018-04-25T10:45:11.994Z,3.97
2018-04-25T10:47:39.431Z,3.42
2018-04-25T10:50:07.641Z,3.92
2018-04-25T10:52:35.098Z,3.37
2018-04-25T10:55:02.545Z,3.67
2018-04-25T10:57:30.757Z,3.90
2018-04-25T10:59:58.201Z,3.35
2018-04-25T11:02:25.695Z,3.15
2018-04-25T11:04:53.885Z,3.83
2018-04-25T11:07:21.352Z,3.53
2018-04-25T11:09:48.784Z,3.47
2018-04-25T11:12:16.247Z,3.65
2018-04-25T11:14:43.701Z,3.65
2018-04-25T11:17:11.145Z,3.72
2018-04-25T11:19:39.357Z,3.97
2018-04-25T11:22:06.792Z,3.87
2018-04-25T11:24:34.255Z,3.30
2018-04-25T11:27:02.462Z,3.62
2018-04-25T11:29:29.925Z,3.40
2018-04-25T11:31:57.423Z,2.95
2018-04-25T11:34:24.823Z,3.15
2018-04-25T11:36:52.268Z,3.50
2018-04-25T11:39:20.491Z,3.42
2018-04-25T11:41:47.949Z,3.00
2018-04-25T11:44:16.180Z,3.83
2018-04-25T11:46:43.613Z,3.15
2018-04-25T11:49:11.108Z,3.42
2018-04-25T11:51:38.522Z,3.15
2018-04-25T11:54:05.972Z,3.80
2018-04-25T11:56:33.418Z,3.72
2018-04-25T11:59:00.862Z,3.30
2018-04-25T12:01:29.079Z,3.20
2018-04-25T12:03:56.527Z,3.37
2018-04-25T12:06:23.985Z,3.97
2018-04-25T12:08:51.434Z,3.45
2018-04-25T12:11:19.628Z,3.28
2018-04-25T12:13:47.091Z,3.33
2018-04-25T12:16:14.550Z,3.05
2018-04-25T12:18:42.816Z,3.08
2018-04-25T12:21:10.195Z,3.35
2018-04-25T12:23:37.635Z,3.45
2018-04-25T12:26:05.845Z,3.45
2018-04-25T12:28:33.316Z,3.00
2018-04-25T12:31:00.777Z,3.00
2018-04-25T12:33:28.240Z,5.72
2018-04-25T12:35:55.762Z,3.40
2018-04-25T12:38:23.920Z,3.33
2018-04-25T12:40:51.363Z,3.60
2018-04-25T12:43:18.807Z,3.25
2018-04-25T12:45:47.019Z,3.53
2018-04-25T12:48:14.478Z,3.00
2018-04-25T12:50:41.916Z,2.80
2018-04-25T12:53:09.354Z,2.90
2018-04-25T12:55:36.806Z,2.70
2018-04-25T12:58:05.012Z,3.15
2018-04-25T13:00:32.488Z,2.97
2018-04-25T13:02:59.938Z,5.35
2018-04-25T13:05:27.395Z,3.10
2018-04-25T13:07:54.849Z,3.17
2018-04-25T13:10:22.325Z,2.97
2018-04-25T13:12:49.757Z,2.92
2018-04-25T13:15:18.815Z,2.72
2018-04-25T13:17:46.255Z,2.55
2018-04-25T13:20:13.705Z,3.15
2018-04-25T13:22:41.148Z,2.40
2018-04-25T13:25:09.367Z,2.33
2018-04-25T13:27:36.809Z,2.60
2018-04-25T13:30:04.264Z,2.62
2018-04-25T13:32:31.711Z,2.85
2018-04-25T13:34:59.923Z,14.57
2018-04-25T13:37:27.380Z,3.90
2018-04-25T13:39:54.815Z,2.70
2018-04-25T13:42:22.266Z,2.40
2018-04-25T13:44:50.481Z,2.60
2018-04-25T13:47:18.456Z,2.40
2018-04-25T13:49:46.524Z,2.45
2018-04-25T13:52:14.866Z,2.08
2018-04-25T13:54:42.317Z,2.37
2018-04-25T13:57:09.771Z,2.30
2018-04-25T13:59:37.415Z,2.50
2018-04-25T14:02:04.917Z,2.05
2018-04-25T14:04:32.346Z,2.12
2018-04-25T14:06:59.800Z,1.55
2018-04-25T14:09:27.228Z,2.10
2018-04-25T14:11:55.465Z,1.90
2018-04-25T14:14:22.924Z,1.75
2018-04-25T14:16:50.374Z,1.80
2018-04-25T14:19:17.799Z,1.80
2018-04-25T14:21:45.259Z,2.00
2018-04-25T14:24:13.929Z,2.05
2018-04-25T14:26:41.380Z,1.80
2018-04-25T14:29:08.817Z,2.87
2018-04-25T14:31:36.267Z,2.75
2018-04-25T14:34:03.723Z,2.75
2018-04-25T14:36:31.195Z,2.87
2018-04-25T14:38:58.643Z,2.83
2018-04-25T14:41:26.091Z,3.03
2018-04-25T14:43:53.550Z,3.50
2018-04-25T14:46:21.759Z,2.85
2018-04-25T14:48:49.996Z,3.05
2018-04-25T14:51:17.438Z,3.50
2018-04-25T14:53:44.875Z,3.80
2018-04-25T14:56:12.328Z,3.78
2018-04-25T14:58:39.773Z,3.22
2018-04-25T15:01:07.220Z,3.75
2018-04-25T15:03:35.428Z,2.90
2018-04-25T15:06:02.879Z,3.10
2018-04-25T15:08:30.328Z,3.20
2018-04-25T15:10:57.784Z,3.35
2018-04-25T15:13:26.015Z,3.62
2018-04-25T15:15:53.460Z,2.62
2018-04-25T15:18:20.900Z,2.80
2018-04-25T15:20:48.351Z,3.10
2018-04-25T15:23:16.574Z,3.60
2018-04-25T15:25:44.014Z,2.97
2018-04-25T15:28:11.462Z,3.03
2018-04-25T15:30:38.948Z,2.95
2018-04-25T15:33:06.407Z,2.90
2018-04-25T15:35:33.977Z,2.70
2018-04-25T15:38:01.424Z,2.47
2018-04-25T15:40:28.858Z,2.50
2018-04-25T15:42:57.093Z,2.67
2018-04-25T15:45:24.519Z,2.80
2018-04-25T15:47:51.990Z,2.72
2018-04-25T15:50:19.420Z,2.78
2018-04-25T15:52:47.632Z,2.65
2018-04-25T15:55:15.095Z,2.92
2018-04-25T15:57:42.519Z,2.90
2018-04-25T16:00:10.736Z,3.10
2018-04-25T16:02:38.188Z,2.72
2018-04-25T16:05:05.648Z,2.20
2018-04-25T16:07:33.080Z,2.30
2018-04-25T16:10:00.527Z,2.50
2018-04-25T16:12:27.996Z,2.40
2018-04-25T16:14:55.430Z,2.80
2018-04-25T16:17:23.280Z,2.22
2018-04-25T16:19:50.716Z,1.95
2018-04-25T16:22:18.918Z,2.35
2018-04-25T16:24:46.356Z,2.60
2018-04-25T16:27:14.558Z,2.28
2018-04-25T16:29:42.000Z,2.30
2018-04-25T16:32:10.204Z,2.37
2018-04-25T16:34:38.429Z,2.40
2018-04-25T16:37:05.866Z,1.95
2018-04-25T16:39:33.329Z,2.08
2018-04-25T16:42:00.772Z,2.00
2018-04-25T16:44:28.226Z,2.22
2018-04-25T16:46:55.662Z,2.45
2018-04-25T16:49:23.893Z,2.25
2018-04-25T16:51:51.332Z,2.03
2018-04-25T16:54:18.800Z,2.05
2018-04-25T16:56:46.244Z,2.40
2018-04-25T16:59:13.695Z,2.20
2018-04-25T17:01:41.933Z,2.17
2018-04-25T17:04:09.368Z,2.20
2018-04-25T17:06:36.807Z,2.03
2018-04-25T17:09:04.260Z,1.85
2018-04-25T17:11:32.468Z,2.03
2018-04-25T17:13:59.934Z,1.80
2018-04-25T17:16:28.140Z,1.90
2018-04-25T17:18:55.614Z,1.77
2018-04-25T17:21:23.072Z,2.00
2018-04-25T17:23:50.522Z,2.10
2018-04-25T17:26:18.060Z,2.03
2018-04-25T17:28:45.541Z,2.33
2018-04-25T17:31:12.963Z,2.67
2018-04-25T17:33:41.176Z,2.12
2018-04-25T17:36:08.624Z,2.58
2018-04-25T17:38:36.058Z,2.30
2018-04-25T17:43:50.024Z,3.78
2018-04-25T17:46:17.559Z,2.55
2018-04-25T17:48:47.129Z,2.05
2018-04-25T17:51:16.370Z,1.90
2018-04-25T17:53:46.682Z,1.73
2018-04-25T17:56:16.167Z,1.80
2018-04-25T17:58:48.600Z,2.10
2018-04-25T18:01:16.043Z,1.80
2018-04-25T18:03:43.624Z,2.37
2018-04-25T18:06:11.100Z,1.98
2018-04-25T18:08:40.145Z,1.90
2018-04-25T18:11:07.590Z,2.05
2018-04-25T18:13:35.463Z,1.77
2018-04-25T18:16:06.140Z,2.15
2018-04-25T18:18:35.017Z,1.60
2018-04-25T18:21:02.808Z,1.62
2018-04-25T18:23:30.624Z,1.40
2018-04-25T18:25:58.097Z,1.60
2018-04-25T18:28:26.455Z,1.60
2018-04-25T18:30:54.684Z,1.50
2018-04-25T18:33:22.150Z,1.42
2018-04-25T18:35:49.619Z,1.20
2018-04-25T18:38:17.052Z,1.40
2018-04-25T18:40:46.522Z,1.25
2018-04-25T18:43:14.724Z,1.40
2018-04-25T18:45:43.173Z,1.27
2018-04-25T18:48:10.638Z,1.00
2018-04-25T18:50:38.120Z,1.27
2018-04-25T18:53:06.304Z,1.00
2018-04-25T18:55:33.759Z,0.82
2018-04-25T18:58:01.315Z,1.37
2018-04-25T19:00:29.528Z,1.05
2018-04-25T19:02:56.983Z,1.00
2018-04-25T19:05:24.409Z,1.15
2018-04-25T19:07:52.627Z,1.00
2018-04-25T19:10:23.736Z,1.20
2018-04-25T19:12:52.049Z,0.93
2018-04-25T19:15:19.547Z,0.90
2018-04-25T19:17:47.777Z,1.17
2018-04-25T19:20:16.488Z,0.90
2018-04-25T19:22:43.928Z,0.88
2018-04-25T19:25:14.539Z,1.02
2018-04-25T19:27:42.029Z,1.10
2018-04-25T19:30:14.811Z,1.00
2018-04-25T19:32:42.325Z,0.90
2018-04-25T19:35:11.998Z,0.90
2018-04-25T19:37:39.509Z,1.10
2018-04-25T19:40:06.935Z,0.90
2018-04-25T19:42:35.133Z,0.98
2018-04-25T19:45:02.573Z,1.23
2018-04-25T19:47:30.017Z,1.30
2018-04-25T19:49:57.465Z,1.20
2018-04-25T19:52:25.671Z,1.48
2018-04-25T19:54:53.113Z,1.10
2018-04-25T19:57:21.382Z,1.02
2018-04-25T19:59:48.782Z,1.00
2018-04-25T20:02:16.225Z,1.00
2018-04-25T20:04:43.689Z,1.17
2018-04-25T20:07:11.139Z,1.08
2018-04-25T20:09:39.369Z,1.02
2018-04-25T20:12:06.824Z,1.25
2018-04-25T20:14:34.270Z,1.05
2018-04-25T20:17:01.715Z,1.20
2018-04-25T20:19:29.172Z,1.15
2018-04-25T20:21:56.642Z,1.30
2018-04-25T20:24:24.862Z,1.08
2018-04-25T20:26:52.401Z,1.60
2018-04-25T20:29:19.872Z,1.27
2018-04-25T20:31:47.329Z,1.40
2018-04-25T20:34:14.775Z,1.23
2018-04-25T20:36:42.208Z,1.35
2018-04-25T20:39:09.692Z,1.27
2018-04-25T20:41:37.155Z,1.17
2018-04-25T20:44:05.385Z,1.00
2018-04-25T20:46:32.817Z,1.37
2018-04-25T20:49:00.278Z,1.20
2018-04-25T20:51:27.730Z,1.70
2018-04-25T20:53:55.175Z,1.52
2018-04-25T20:56:23.380Z,1.87
2018-04-25T20:58:50.841Z,1.70
2018-04-25T21:01:18.431Z,1.62
2018-04-25T21:03:45.864Z,1.90
2018-04-25T21:06:13.317Z,1.90
2018-04-25T21:08:40.775Z,2.12
2018-04-25T21:11:08.235Z,1.80
2018-04-25T21:13:36.416Z,2.12
2018-04-25T21:16:04.624Z,2.00
2018-04-25T21:18:32.082Z,1.80
2018-04-25T21:20:59.542Z,2.22
2018-04-25T21:23:26.963Z,2.30
2018-04-25T21:25:55.169Z,2.35
2018-04-25T21:28:22.613Z,1.92
2018-04-25T21:30:50.826Z,2.25
2018-04-25T21:33:18.268Z,1.90
2018-04-25T21:35:45.732Z,2.08
2018-04-25T21:38:13.169Z,2.40
2018-04-25T21:40:40.629Z,2.33
2018-04-25T21:43:08.066Z,2.30
2018-04-25T21:45:35.507Z,2.58
2018-04-25T21:48:02.949Z,2.62
2018-04-25T21:50:30.390Z,2.65
2018-04-25T21:52:58.596Z,2.50
2018-04-25T21:55:26.044Z,2.25
2018-04-25T21:57:53.493Z,2.25
2018-04-25T22:00:21.720Z,2.80
2018-04-25T22:02:49.169Z,2.60
2018-04-25T22:05:16.648Z,3.25
2018-04-25T22:07:44.092Z,3.00
2018-04-25T22:10:11.543Z,3.00
2018-04-25T22:12:38.987Z,2.75
2018-04-25T22:15:07.196Z,3.10
2018-04-25T22:17:34.664Z,3.17
2018-04-25T22:20:02.119Z,2.85
2018-04-25T22:22:29.571Z,2.97
2018-04-25T22:24:57.020Z,2.90
2018-04-25T22:27:25.244Z,3.35
2018-04-25T22:29:52.675Z,4.10
2018-04-25T22:32:20.126Z,3.72
2018-04-25T22:34:48.359Z,3.80
2018-04-25T22:37:15.816Z,3.33
2018-04-25T22:39:43.262Z,4.10
2018-04-25T22:42:10.723Z,3.53
2018-04-25T22:44:38.184Z,3.75
2018-04-25T22:47:05.640Z,3.87
2018-04-25T22:49:33.094Z,3.25
2018-04-25T22:52:00.557Z,3.92
2018-04-25T22:54:27.995Z,3.37
2018-04-25T22:56:56.199Z,3.33
2018-04-25T22:59:24.403Z,3.10
2018-04-25T23:01:51.864Z,3.17
2018-04-25T23:04:19.305Z,3.60
2018-04-25T23:06:47.517Z,3.53
2018-04-25T23:09:14.972Z,3.33
2018-04-25T23:11:42.449Z,3.47
2018-04-25T23:14:09.892Z,3.45
2018-04-25T23:16:37.356Z,3.90
2018-04-25T23:19:04.791Z,4.00
2018-04-25T23:21:32.247Z,3.92
2018-04-25T23:23:59.673Z,3.80
2018-04-25T23:26:27.122Z,3.70
2018-04-25T23:28:54.569Z,3.80
2018-04-25T23:31:22.014Z,4.00
2018-04-25T23:33:49.469Z,3.90
2018-04-25T23:36:16.939Z,4.28
2018-04-25T23:38:44.385Z,4.20
2018-04-25T23:41:11.839Z,3.65
2018-04-25T23:43:39.282Z,3.78
2018-04-25T23:46:06.706Z,3.67
2018-04-25T23:48:34.157Z,3.85
2018-04-25T23:51:01.606Z,4.10
2018-04-25T23:53:29.047Z,3.65
2018-04-25T23:55:56.489Z,3.55
2018-04-25T23:58:23.930Z,3.80
